Time,TemperatureF,DewpointF,PressureIn,WindDirection,WindDirectionDegrees,WindSpeedMPH,WindSpeedGustMPH,Humidity,HourlyPrecipIn,Conditions,Clouds,dailyrainin,SolarRadiationWatts/m^2,SoftwareType,DateUTC
2013-01-12 10:40:00,63.1,61.9,30.10,WSW,246,0.0,3.0,96,0.00,,,0.04,97,Wunderground v.1.15,2013-01-12 15:40:00,
2013-01-12 10:50:00,63.4,62.2,30.10,WSW,237,0.0,0.0,96,0.00,,,0.04,81,Wunderground v.1.15,2013-01-12 15:50:00,
2013-01-12 11:00:00,63.5,62.3,30.10,WSW,237,0.0,0.0,96,0.00,,,0.04,142,Wunderground v.1.15,2013-01-12 16:00:00,
2013-01-12 11:10:00,63.9,62.7,30.09,WSW,237,0.0,0.0,96,0.00,,,0.04,141,Wunderground v.1.15,2013-01-12 16:10:00,
2013-01-12 11:20:00,64.2,63.0,30.09,WSW,237,0.0,0.0,96,0.00,,,0.04,158,Wunderground v.1.15,2013-01-12 16:20:00,
2013-01-12 11:30:00,64.5,63.0,30.09,South,188,0.0,0.0,95,0.00,,,0.04,192,Wunderground v.1.15,2013-01-12 16:30:00,
2013-01-12 11:40:00,64.8,63.0,30.09,South,188,0.0,0.0,94,0.00,,,0.04,111,Wunderground v.1.15,2013-01-12 16:40:00,
2013-01-12 11:50:00,64.9,62.5,30.08,SW,227,0.0,0.0,92,0.00,,,0.04,153,Wunderground v.1.15,2013-01-12 16:50:00,
2013-01-12 12:00:00,65.3,62.6,30.08,South,190,1.0,1.0,91,0.00,,,0.04,144,Wunderground v.1.15,2013-01-12 17:00:00,
2013-01-12 12:10:00,65.8,62.5,30.07,SSW,210,2.0,2.0,89,0.00,,,0.04,221,Wunderground v.1.15,2013-01-12 17:10:00,
2013-01-12 12:20:00,66.6,62.6,30.06,SSW,193,2.0,2.0,87,0.00,,,0.04,251,Wunderground v.1.15,2013-01-12 17:20:00,
2013-01-12 12:30:00,67.2,62.5,30.06,SE,144,2.0,2.0,85,0.00,,,0.04,193,Wunderground v.1.15,2013-01-12 17:30:00,
2013-01-12 12:40:00,67.2,61.5,30.06,South,181,2.0,4.0,82,0.00,,,0.04,137,Wunderground v.1.15,2013-01-12 17:40:00,
2013-01-12 12:50:00,67.1,61.4,30.05,West,259,2.0,2.0,82,0.00,,,0.04,406,Wunderground v.1.15,2013-01-12 17:50:00,
2013-01-12 13:00:00,68.3,61.9,30.05,WSW,250,1.0,7.0,80,0.00,,,0.04,345,Wunderground v.1.15,2013-01-12 18:00:00,
2013-01-12 13:10:00,68.9,61.4,30.05,SSE,161,3.0,3.0,77,0.00,,,0.04,271,Wunderground v.1.15,2013-01-12 18:10:00,
2013-01-12 13:20:00,69.0,62.2,30.04,West,269,2.0,2.0,79,0.00,,,0.04,466,Wunderground v.1.15,2013-01-12 18:20:00,
2013-01-12 13:30:00,69.3,62.5,30.05,SSE,154,2.0,2.0,79,0.00,,,0.04,529,Wunderground v.1.15,2013-01-12 18:30:00,
2013-01-12 13:40:00,69.9,62.0,30.04,WSW,258,1.0,2.0,76,0.00,,,0.04,564,Wunderground v.1.15,2013-01-12 18:40:00,
2013-01-12 13:50:00,69.9,62.0,30.04,SW,224,3.0,3.0,76,0.00,,,0.04,229,Wunderground v.1.15,2013-01-12 18:50:00,
2013-01-12 14:00:00,69.3,61.8,30.03,SW,235,1.0,3.0,77,0.00,,,0.04,294,Wunderground v.1.15,2013-01-12 19:00:00,
2013-01-12 14:10:00,69.3,62.1,30.03,West,259,1.0,1.0,78,0.00,,,0.04,418,Wunderground v.1.15,2013-01-12 19:10:00,
2013-01-12 14:20:00,69.8,62.3,30.03,SE,138,1.0,1.0,77,0.00,,,0.04,209,Wunderground v.1.15,2013-01-12 19:20:00,
2013-01-12 14:30:00,69.7,62.2,30.03,SSW,211,1.0,2.0,77,0.00,,,0.04,204,Wunderground v.1.15,2013-01-12 19:30:00,
2013-01-12 14:40:00,69.3,61.8,30.03,SW,235,1.0,4.0,77,0.00,,,0.04,497,Wunderground v.1.15,2013-01-12 19:40:00,
2013-01-12 14:50:00,69.4,61.5,30.03,SW,225,1.0,3.0,76,0.00,,,0.04,469,Wunderground v.1.15,2013-01-12 19:50:00,
2013-01-12 15:00:00,69.8,61.5,30.03,WSW,245,1.0,2.0,75,0.00,,,0.04,220,Wunderground v.1.15,2013-01-12 20:00:00,
2013-01-12 15:10:00,69.6,60.9,30.03,SSW,201,1.0,2.0,74,0.00,,,0.04,341,Wunderground v.1.15,2013-01-12 20:10:00,
2013-01-12 15:20:00,69.4,60.8,30.03,South,181,2.0,3.0,74,0.00,,,0.04,105,Wunderground v.1.15,2013-01-12 20:20:00,
2013-01-12 15:30:00,68.5,60.6,30.03,South,182,1.0,3.0,76,0.00,,,0.04,98,Wunderground v.1.15,2013-01-12 20:30:00,
2013-01-12 15:40:00,68.2,60.7,30.03,WSW,243,1.0,2.0,77,0.00,,,0.04,93,Wunderground v.1.15,2013-01-12 20:40:00,
2013-01-12 15:50:00,68.0,60.2,30.03,SSW,213,1.0,1.0,76,0.00,,,0.04,60,Wunderground v.1.15,2013-01-12 20:50:00,
2013-01-12 16:00:00,67.9,59.7,30.03,WSW,254,1.0,7.0,75,0.00,,,0.04,69,Wunderground v.1.15,2013-01-12 21:00:00,
2013-01-12 16:10:00,67.7,59.9,30.02,SSW,207,2.0,2.0,76,0.00,,,0.04,42,Wunderground v.1.15,2013-01-12 21:10:00,
2013-01-12 16:20:00,67.4,59.9,30.02,SW,227,0.0,0.0,77,0.00,,,0.04,46,Wunderground v.1.15,2013-01-12 21:20:00,
2013-01-12 16:30:00,67.1,60.0,30.02,SW,227,0.0,0.0,78,0.00,,,0.04,56,Wunderground v.1.15,2013-01-12 21:30:00,
2013-01-12 16:40:00,66.8,60.1,30.02,SSW,200,0.0,4.0,79,0.00,,,0.04,62,Wunderground v.1.15,2013-01-12 21:40:00,
2013-01-12 16:50:00,66.8,59.7,30.02,SSW,200,1.0,2.0,78,0.00,,,0.04,58,Wunderground v.1.15,2013-01-12 21:50:00,
2013-01-12 17:00:00,66.7,60.0,30.03,SSW,213,0.0,0.0,79,0.00,,,0.04,33,Wunderground v.1.15,2013-01-12 22:00:00,
2013-01-12 17:10:00,66.5,59.4,30.02,SSW,204,1.0,1.0,78,0.00,,,0.04,21,Wunderground v.1.15,2013-01-12 22:10:00,
2013-01-12 17:20:00,66.1,59.4,30.02,SSW,205,0.0,0.0,79,0.00,,,0.04,18,Wunderground v.1.15,2013-01-12 22:20:00,
2013-01-12 17:30:00,65.7,59.0,30.01,SSW,192,0.0,0.0,79,0.00,,,0.04,11,Wunderground v.1.15,2013-01-12 22:30:00,
2013-01-12 17:40:00,65.4,58.7,30.01,South,190,0.0,0.0,79,0.00,,,0.04,0,Wunderground v.1.15,2013-01-12 22:40:00,
2013-01-12 17:50:00,65.0,58.7,30.02,South,190,0.0,0.0,80,0.00,,,0.04,0,Wunderground v.1.15,2013-01-12 22:50:00,
2013-01-12 18:00:00,64.1,58.1,30.02,South,190,0.0,0.0,81,0.00,,,0.04,0,Wunderground v.1.15,2013-01-12 23:00:00,
2013-01-12 18:10:00,63.5,57.9,30.02,South,190,0.0,0.0,82,0.00,,,0.04,0,Wunderground v.1.15,2013-01-12 23:10:00,
2013-01-12 18:20:00,63.2,57.6,30.02,South,190,0.0,0.0,82,0.00,,,0.04,0,Wunderground v.1.15,2013-01-12 23:20:00,
2013-01-12 18:30:00,63.1,57.9,30.02,South,191,0.0,0.0,83,0.00,,,0.04,0,Wunderground v.1.15,2013-01-12 23:30:00,
2013-01-12 18:40:00,62.9,57.7,30.02,South,191,0.0,0.0,83,0.00,,,0.04,0,Wunderground v.1.15,2013-01-12 23:40:00,
2013-01-12 18:50:00,62.8,57.9,30.02,South,190,0.0,0.0,84,0.00,,,0.04,0,Wunderground v.1.15,2013-01-12 23:50:00,
2013-01-12 19:00:00,62.5,57.6,30.01,South,190,0.0,0.0,84,0.00,,,0.04,0,Wunderground v.1.15,2013-01-13 00:00:00,
2013-01-12 19:10:00,62.4,57.8,30.02,South,190,0.0,1.0,85,0.00,,,0.04,0,Wunderground v.1.15,2013-01-13 00:10:00,
2013-01-12 19:20:00,62.0,57.4,30.02,South,190,0.0,0.0,85,0.00,,,0.04,0,Wunderground v.1.15,2013-01-13 00:20:00,
2013-01-12 19:30:00,61.6,57.4,30.02,South,190,0.0,0.0,86,0.00,,,0.04,0,Wunderground v.1.15,2013-01-13 00:30:00,
2013-01-12 19:40:00,61.4,57.5,30.01,South,190,0.0,0.0,87,0.00,,,0.04,0,Wunderground v.1.15,2013-01-13 00:40:00,
2013-01-12 19:50:00,61.5,57.6,30.01,South,190,0.0,0.0,87,0.00,,,0.04,0,Wunderground v.1.15,2013-01-13 00:50:00,
2013-01-12 20:00:00,61.5,57.6,30.00,South,190,0.0,0.0,87,0.00,,,0.04,0,Wunderground v.1.15,2013-01-13 01:00:00,